createdAt,value
2022-09-15T00:04:19.950Z,23.21
2022-09-15T00:09:22.114Z,23.16
2022-09-15T00:14:22.586Z,23.04
2022-09-15T00:19:23.187Z,23.01
2022-09-15T00:24:24.046Z,22.99
2022-09-15T00:29:24.595Z,22.93
2022-09-15T00:34:23.775Z,22.91
2022-09-15T00:39:22.815Z,22.90
2022-09-15T00:44:52.991Z,22.90
2022-09-15T00:49:58.958Z,22.89
2022-09-15T00:55:03.888Z,22.90
2022-09-15T01:00:10.264Z,22.90
2022-09-15T01:05:12.409Z,22.87
2022-09-15T01:10:17.620Z,22.83
2022-09-15T01:15:18.770Z,22.84
2022-09-15T01:21:11.125Z,22.82
2022-09-15T01:27:41.120Z,22.81
2022-09-15T01:33:37.238Z,22.73
2022-09-15T01:39:37.155Z,22.75
2022-09-15T01:44:46.160Z,22.77
2022-09-15T01:49:54.538Z,22.77
2022-09-15T01:54:59.999Z,22.77
2022-09-15T01:59:58.989Z,22.74
2022-09-15T02:05:08.918Z,22.74
2022-09-15T02:10:15.460Z,22.72
2022-09-15T02:15:18.881Z,22.67
2022-09-15T02:20:33.304Z,22.64
2022-09-15T02:25:36.319Z,22.62
2022-09-15T02:30:42.533Z,22.63
2022-09-15T02:35:43.755Z,22.60
2022-09-15T02:40:54.405Z,22.58
2022-09-15T02:45:55.308Z,22.53
2022-09-15T02:50:55.734Z,22.51
2022-09-15T02:55:54.730Z,22.43
2022-09-15T03:01:07.573Z,22.44
2022-09-15T03:06:23.490Z,22.41
2022-09-15T03:11:25.127Z,22.35
2022-09-15T03:16:25.274Z,22.38
2022-09-15T03:21:25.698Z,22.38
2022-09-15T03:26:24.923Z,22.36
2022-09-15T03:31:24.191Z,22.41
2022-09-15T03:36:23.374Z,22.46
2022-09-15T03:41:23.822Z,22.50
2022-09-15T03:46:23.131Z,22.50
2022-09-15T03:51:22.429Z,22.53
2022-09-15T03:56:29.251Z,22.57
2022-09-15T04:01:31.813Z,22.56
2022-09-15T04:06:31.557Z,22.56
2022-09-15T04:11:41.209Z,22.55
2022-09-15T04:16:40.216Z,22.50
2022-09-15T04:21:41.993Z,22.54
2022-09-15T04:26:49.925Z,22.49
2022-09-15T04:31:48.848Z,22.41
2022-09-15T04:36:54.409Z,22.46
2022-09-15T04:41:55.026Z,22.54
2022-09-15T04:46:54.558Z,22.65
2022-09-15T04:51:53.976Z,22.78
2022-09-15T04:56:54.287Z,22.85
2022-09-15T05:01:55.545Z,22.96
2022-09-15T05:06:54.602Z,23.02
2022-09-15T05:11:54.860Z,23.11
2022-09-15T05:16:54.019Z,23.05
2022-09-15T05:21:52.995Z,23.27
2022-09-15T05:26:51.910Z,23.27
2022-09-15T05:31:52.502Z,23.58
2022-09-15T05:36:51.790Z,23.64
2022-09-15T05:41:50.758Z,23.84
2022-09-15T05:46:52.560Z,23.99
2022-09-15T05:51:51.994Z,24.10
2022-09-15T05:56:50.942Z,24.15
2022-09-15T06:01:51.723Z,24.26
2022-09-15T06:06:51.236Z,24.25
2022-09-15T06:11:50.088Z,24.30
2022-09-15T06:16:49.276Z,24.30
2022-09-15T06:21:49.644Z,24.27
2022-09-15T06:26:51.472Z,24.29
2022-09-15T06:31:50.618Z,24.40
2022-09-15T06:36:59.903Z,24.38
2022-09-15T06:42:02.773Z,24.58
2022-09-15T06:47:02.980Z,24.64
2022-09-15T06:52:04.908Z,24.89
2022-09-15T06:57:04.000Z,25.01
2022-09-15T07:02:05.055Z,25.17
2022-09-15T07:07:05.869Z,25.43
2022-09-15T07:12:05.014Z,25.71
2022-09-15T07:17:04.129Z,25.90
2022-09-15T07:22:07.023Z,26.09
2022-09-15T07:27:06.547Z,26.37
2022-09-15T07:32:06.160Z,26.66
2022-09-15T07:37:06.861Z,26.63
2022-09-15T07:42:05.974Z,27.07
2022-09-15T07:47:04.799Z,27.37
2022-09-15T07:52:03.748Z,27.51
2022-09-15T07:57:06.541Z,27.53
2022-09-15T08:02:05.618Z,27.66
2022-09-15T08:07:04.971Z,27.91
2022-09-15T08:12:06.074Z,27.92
2022-09-15T08:17:10.733Z,28.41
2022-09-15T08:22:10.395Z,28.63
2022-09-15T08:27:10.895Z,28.85
2022-09-15T08:32:09.672Z,29.09
2022-09-15T08:37:08.476Z,29.39
2022-09-15T08:42:07.916Z,29.77
2022-09-15T08:47:13.554Z,30.02
2022-09-15T08:52:17.776Z,30.48
2022-09-15T08:57:23.029Z,30.98
2022-09-15T09:02:51.310Z,31.56
2022-09-15T09:08:12.682Z,31.98
2022-09-15T09:13:24.315Z,32.97
2022-09-15T09:18:47.039Z,33.81
2022-09-15T09:23:53.186Z,34.31
2022-09-15T09:28:59.186Z,34.61
2022-09-15T09:34:06.643Z,34.75
2022-09-15T09:39:05.713Z,34.72
2022-09-15T09:44:08.202Z,35.33
2022-09-15T09:49:17.830Z,35.32
2022-09-15T09:54:20.760Z,35.16
2022-09-15T09:59:40.669Z,36.05
2022-09-15T10:04:41.118Z,36.88
2022-09-15T10:09:40.607Z,36.78
2022-09-15T10:14:42.432Z,36.51
2022-09-15T10:19:49.676Z,36.59
2022-09-15T10:24:56.402Z,36.88
2022-09-15T10:29:56.102Z,37.04
2022-09-15T10:35:11.649Z,37.18
2022-09-15T10:40:24.374Z,37.74
2022-09-15T10:45:31.588Z,37.86
2022-09-15T10:50:35.394Z,37.36
2022-09-15T10:55:53.041Z,37.66
2022-09-15T11:01:01.577Z,37.81
2022-09-15T11:06:13.427Z,38.00
2022-09-15T11:11:19.779Z,38.31
2022-09-15T11:16:31.617Z,38.04
2022-09-15T11:21:37.943Z,37.96
2022-09-15T11:26:43.881Z,37.78
2022-09-15T11:31:49.284Z,38.02
2022-09-15T11:36:55.002Z,38.39
2022-09-15T11:41:57.655Z,38.48
2022-09-15T11:47:19.920Z,38.41
2022-09-15T11:52:46.022Z,37.91
2022-09-15T11:57:51.557Z,37.73
2022-09-15T12:02:56.752Z,37.58
2022-09-15T12:08:04.038Z,37.94
2022-09-15T12:13:03.554Z,38.05
2022-09-15T12:18:27.418Z,38.26
2022-09-15T12:23:34.848Z,38.49
2022-09-15T12:28:44.067Z,38.71
2022-09-15T12:33:46.313Z,38.32
2022-09-15T12:38:50.671Z,38.42
2022-09-15T12:43:54.541Z,39.01
2022-09-15T12:48:59.340Z,38.86
2022-09-15T12:54:02.916Z,38.98
2022-09-15T12:59:06.958Z,39.36
2022-09-15T13:04:27.311Z,40.09
2022-09-15T13:09:29.742Z,39.53
2022-09-15T13:14:35.552Z,39.65
2022-09-15T13:19:42.329Z,39.63
2022-09-15T13:24:49.922Z,39.36
2022-09-15T13:29:51.883Z,38.90
2022-09-15T13:35:15.083Z,38.87
2022-09-15T13:40:40.176Z,38.93
2022-09-15T13:45:52.796Z,39.03
2022-09-15T13:50:59.842Z,38.74
2022-09-15T13:56:09.164Z,38.81
2022-09-15T14:01:08.735Z,39.43
2022-09-15T14:06:13.980Z,39.01
2022-09-15T14:11:17.862Z,38.87
2022-09-15T14:16:25.734Z,38.88
2022-09-15T14:21:28.821Z,38.44
2022-09-15T14:26:30.754Z,38.85
2022-09-15T14:31:32.478Z,39.00
2022-09-15T14:36:33.271Z,38.75
2022-09-15T14:41:35.077Z,38.97
2022-09-15T14:46:38.623Z,39.07
2022-09-15T14:51:40.421Z,39.45
2022-09-15T14:56:44.290Z,39.40
2022-09-15T15:01:47.653Z,39.41
2022-09-15T15:06:54.207Z,39.28
2022-09-15T15:12:00.245Z,39.39
2022-09-15T15:17:06.122Z,39.27
2022-09-15T15:22:15.676Z,38.93
2022-09-15T15:27:41.708Z,38.92
2022-09-15T15:32:45.023Z,38.70
2022-09-15T15:37:44.190Z,38.56
2022-09-15T15:42:59.347Z,38.00
2022-09-15T15:47:59.811Z,37.66
2022-09-15T15:52:58.705Z,37.32
2022-09-15T15:57:59.630Z,37.28
2022-09-15T16:03:02.360Z,37.09
2022-09-15T16:08:09.730Z,36.72
2022-09-15T16:13:14.410Z,36.32
2022-09-15T16:18:14.005Z,35.98
2022-09-15T16:23:16.735Z,35.75
2022-09-15T16:28:30.736Z,35.49
2022-09-15T16:33:38.223Z,35.20
2022-09-15T16:39:49.639Z,34.89
2022-09-15T16:52:14.140Z,34.29
2022-09-15T16:58:33.119Z,34.06
2022-09-15T17:03:04.051Z,33.81
2022-09-15T17:08:35.856Z,33.55
2022-09-15T17:48:27.623Z,32.29
2022-09-15T17:53:33.243Z,32.14
2022-09-15T17:58:35.400Z,32.03
2022-09-15T18:03:43.234Z,31.91
2022-09-15T18:09:18.295Z,31.78
2022-09-15T18:14:17.993Z,31.62
2022-09-15T18:19:41.089Z,31.41
2022-09-15T18:24:40.155Z,31.31
2022-09-15T18:29:39.019Z,31.20
2022-09-15T18:34:39.251Z,31.13
2022-09-15T18:39:38.669Z,30.98
2022-09-15T18:44:37.577Z,30.88
2022-09-15T18:49:38.590Z,30.76
2022-09-15T18:54:39.086Z,30.61
2022-09-15T18:59:39.012Z,30.49
2022-09-15T19:04:40.622Z,30.40
2022-09-15T19:09:41.235Z,30.39
2022-09-15T19:14:44.534Z,30.27
2022-09-15T19:19:46.532Z,30.23
2022-09-15T19:24:46.787Z,30.23
2022-09-15T19:29:46.406Z,30.18
2022-09-15T19:34:46.118Z,30.19
2022-09-15T19:39:46.782Z,30.23
2022-09-15T19:44:46.143Z,30.20
2022-09-15T19:49:45.456Z,30.15
2022-09-15T19:54:44.621Z,30.08
2022-09-15T19:59:45.315Z,29.98
2022-09-15T20:04:44.675Z,29.82
2022-09-15T20:09:48.464Z,29.55
2022-09-15T20:14:49.053Z,29.38
2022-09-15T20:19:47.993Z,29.30
2022-09-15T20:24:47.027Z,29.30
2022-09-15T20:29:46.077Z,29.28
2022-09-15T20:34:46.833Z,29.21
2022-09-15T20:39:52.787Z,28.92
2022-09-15T20:44:51.788Z,29.10
2022-09-15T20:49:52.087Z,28.96
2022-09-15T20:54:50.869Z,29.00
2022-09-15T20:59:50.068Z,28.81
2022-09-15T21:04:48.943Z,28.87
2022-09-15T21:09:49.488Z,28.85
2022-09-15T21:14:48.744Z,28.68
2022-09-15T21:19:48.036Z,28.62
2022-09-15T21:24:48.567Z,28.64
2022-09-15T21:29:48.400Z,28.56
2022-09-15T21:34:47.366Z,28.49
2022-09-15T21:39:46.227Z,28.09
2022-09-15T21:44:46.545Z,28.22
2022-09-15T21:49:45.407Z,28.31
2022-09-15T21:54:44.824Z,28.29
2022-09-15T21:59:44.054Z,28.21
2022-09-15T22:04:44.487Z,28.19
2022-09-15T22:09:43.558Z,28.14
2022-09-15T22:14:44.670Z,28.18
2022-09-15T22:19:45.579Z,28.18
2022-09-15T22:24:45.244Z,28.23
2022-09-15T22:29:44.822Z,28.23
2022-09-15T22:34:45.793Z,28.24
2022-09-15T22:39:58.573Z,28.23
2022-09-15T22:44:58.388Z,28.27
2022-09-15T22:49:58.889Z,28.18
2022-09-15T22:54:57.874Z,28.14
2022-09-15T22:59:57.019Z,28.13
2022-09-15T23:04:55.895Z,28.11
2022-09-15T23:09:56.343Z,28.08
2022-09-15T23:14:55.323Z,28.02
2022-09-15T23:19:55.790Z,28.01
2022-09-15T23:24:56.235Z,27.94
2022-09-15T23:29:55.173Z,27.91
2022-09-15T23:34:54.044Z,27.90
2022-09-15T23:39:52.890Z,27.86
2022-09-15T23:44:53.162Z,27.80
2022-09-15T23:49:52.193Z,27.77
2022-09-15T23:54:51.102Z,27.72
2022-09-15T23:59:50.027Z,27.65
